Fort Simpson Airport
CYFS : now visible

Airfield :











YOU CAN JOIN US ON...

 
LOGIN :

Register | Disclaimer

   EN    FR    IT 

 









Legend :    VFR   Marginal VFR   IFR   Intensive IFR   Very Intensive IFR
Visi :
Ceiling :
>= 8 km
>= 3000ft
5 to 8 km
1000 to 3000 ft
1500m to 5 km
500 to 1000 ft
800 to 1500m
200 to 500 ft
< 800m
< 200 ft
Symbols :   Thunderstorms  Fog  Heavy snow  Heavy precipitations  Wind > 20 kt






- Airport Elevation : 555 ft
- IATA code : YFS


CYFS - Fort Simpson

CURRENT METAR :
  • 110600Z 13004KT 090V150 15SM BKN095 M24/M28 A3032 RMK AC6 SLP295

EXPIRED METARs :
  • 110500Z 13004KT 090V160 15SM BKN090 M24/M27 A3031 RMK AC6 SLP292
  • 110400Z 12005KT 080V170 15SM BKN085 M24/M27 A3032 RMK AC7 SLP293

TAF TAF CYFS
Valid from the 11 at 06:00 until the 11 at 18:00 UTC


110538Z 1106/1118 12005KT P6SM BKN080
FM111600 VRB03KT P6SM FEW120 RMK NXT FCST BY 111200Z



MET'MAP, your aeronautical weather chart ! - Copyright ORBIFLY December 2007 - Disclaimer

ORBIFLY MET'MAP TEAM :

Programming & Development : Alexandra Zaïnal
Concept & original design : Baudouin d'Aumeries
Assistance for programming : Marc-Olivier Méhu
Technical & hardware support : Manuel Goepfert

Contact : metmap@orbifly.com




SOURCES & CREDITS :

   NOAA       Earth
Advisory